• Join FlightAware (Why Join?)
  • Login
  • US Flag 
09:00AM EDT


 

Airport Tracker/Info


-or-


 

Live Flight TrackerFlight Track Log ✈ SWA3 ✈ 23-Jun-2013 ✈ KDAL - KHOU

Flight Track Log - Related Links

Times and Time Zones

All times are in EDT time to prevent confusion due to time zone crossing. See the SWA3 flight status page for this flight to view local times or setup timezone preferences in your user account.

Time Position Orientation Groundspeed Altitude Reporting Facility
EDT Latitude Longitude Course Direction KTS MPH feet Rate Location/Type
08:40AM 32.8333 -96.8333 140° Southeast 153 176 1,300  Level Dallas / Fort Worth TRACON
08:41AM 32.8000 -96.8000 140° Southeast 219 252 3,000 2,280 Climbing Dallas / Fort Worth TRACON
08:42AM 32.7500 -96.8000 180° South 242 278 5,700 2,340 Climbing Dallas / Fort Worth TRACON
08:44AM 32.5794 -96.8539 195° South 294 338 10,800 2,580 Climbing Fort Worth Center
08:45AM 32.4772 -96.8814 193° South 346 398 14,000 2,580 Climbing Fort Worth Center
08:46AM 32.3836 -96.9092 194° South 372 428 16,000 2,340 Climbing Fort Worth Center
08:47AM 32.2731 -96.9367 192° South 372 428 18,700 2,280 Climbing Fort Worth Center
08:48AM 32.1603 -96.9200 173° South 382 440 20,600 1,980 Climbing Fort Worth Center
08:50AM 31.9478 -96.8797 171° South 412 474 24,600 1,800 Climbing Houston Center
08:51AM 31.8297 -96.8594 172° South 422 486 26,000 1,500 Climbing Houston Center
08:52AM 31.7069 -96.8386 172° South 436 502 27,700 1,440 Climbing Houston Center
08:53AM 31.5822 -96.8181 172° South 444 511 29,000 1,380 Climbing Houston Center
08:54AM 31.4572 -96.7981 172° South 448 516 30,600 1,560 Climbing Houston Center
08:55AM 31.3336 -96.8017 181° South 450 518 32,300 1,140 Climbing Houston Center
08:56AM 31.2119 -96.8192 187° South 436 502 33,000 -600 Climbing Houston Center
08:57AM 31.0825 -96.8361 186° South 456 525 31,200 -2,100 Descending Houston Center
08:59AM 30.9531 -96.8558 187° South 460 529 28,800 -2,700 Descending Houston Center
09:00AM 30.8411 -96.8011 157° South 460 529 25,700 -2,100 Descending Houston Center
09:01AM 30.7472 -96.7131 141° Southeast 432 497 24,500 -1,620 Descending Houston Center
09:02AM 30.6614 -96.6336 141° Southeast 396 456 22,500 -2,100 Descending Houston Center
09:03AM 30.5758 -96.5514 140° Southeast 393 452 20,300 -2,100 Descending Houston Center
09:04AM 30.4908 -96.4731 142° Southeast 386 444 18,300 -2,040 Descending Houston Center
09:05AM 30.4083 -96.3953 141° Southeast 377 434 16,200 -2,280 Descending Houston Center
09:05AM 30.3517 -96.3442 142° Southeast 371 427 14,700 -2,220 Descending Houston Center
09:07AM 30.2400 -96.2406 141° Southeast 349 402 11,800 -1,500 Descending Houston Center
09:08AM 30.1597 -96.1811 147° Southeast 327 376 11,000 -420 Descending Houston Center
09:09AM 30.0894 -96.1464 157° South 318 366 11,100 -120 Climbing Houston Center
09:10AM 30.0100 -96.1022 154° Southeast 314 361 10,800 -900 Descending Houston Center
09:11AM 29.9353 -96.0625 155° Southeast 284 327 9,300 -1,440 Descending Houston Center
09:12AM 29.9036 -95.9867 116° Southeast 282 325 7,900 -1,440 Descending Houston Center
09:13AM 29.8869 -95.8936 102° East 282 325 6,200 -960 Descending Houston Center
09:14AM 29.8708 -95.8050 102° East 282 325 6,000 -960 Descending Houston Center
09:15AM 29.8531 -95.7203 104° East 276 318 4,500 -1,380 Descending Houston Center
09:16AM 29.8372 -95.6381 102° East 264 304 3,200 -780 Descending Houston Center
09:17AM 29.8242 -95.5625 101° East 228 262 3,000 -60 Descending Houston Center
09:18AM 29.8092 -95.4894 103° East 222 255 3,100  Climbing Houston Center
09:19AM 29.7747 -95.4336 125° Southeast 213 245 3,100 -300 Level Houston Center
09:20AM 29.7333 -95.3839 134° Southeast 200 230 2,500 -780 Descending Houston Center
09:21AM 29.7017 -95.3483 136° Southeast 179 206 1,600 -960 Descending Houston Center
09:22AM 29.6733 -95.3133 133° Southeast 132 152 800 -660 Descending Houston Center
09:23AM 29.6436 -95.2778 134° Southeast 147 169 200 -480 Descending Houston Center
09:25AM 29.6454 -95.2789 115° Southeast  Level Estimated